Time;durP1;ratioP1;P1;durP2;ratioP2;P2;SDS_P1;SDS_P2;PMS_P1;PMS_P2;Temp;Humidity;BMP_temperature;BMP_pressure;BME280_temperature;BME280_humidity;BME280_pressure;Samples;Min_cycle;Max_cycle;Signal;HPM_P1;HPM_P2
2021/07/02 00:02:50;;;;;;;18.50;16.03;;;;;;;18.02;100.00;101691.72;1970648;72;31101;-72
2021/07/02 00:08:14;;;;;;;17.23;15.17;;;;;;;17.90;100.00;101687.78;1970553;73;30986;-71
2021/07/02 00:13:39;;;;;;;19.23;15.83;;;;;;;17.89;100.00;101687.52;1970935;72;31614;-75
2021/07/02 00:19:04;;;;;;;16.60;14.23;;;;;;;17.94;100.00;101689.66;1970689;73;33480;-75
2021/07/02 00:24:28;;;;;;;17.87;15.97;;;;;;;17.77;100.00;101688.05;1970817;73;32994;-72
2021/07/02 00:29:52;;;;;;;17.33;15.53;;;;;;;17.85;100.00;101687.31;1970884;73;31482;-72
2021/07/02 00:35:17;;;;;;;16.90;15.20;;;;;;;17.69;100.00;101688.22;1970800;72;31038;-72
2021/07/02 00:40:41;;;;;;;16.03;14.00;;;;;;;17.23;100.00;101691.64;1970851;73;33454;-75
2021/07/02 00:46:06;;;;;;;18.67;14.43;;;;;;;17.31;100.00;101681.09;1970858;73;31597;-75
2021/07/02 00:51:31;;;;;;;17.00;14.23;;;;;;;17.38;100.00;101687.13;1970884;73;31575;-72
2021/07/02 00:56:55;;;;;;;16.83;13.63;;;;;;;17.35;100.00;101686.35;1970919;72;31050;-74
2021/07/02 01:02:20;;;;;;;17.03;14.10;;;;;;;17.47;100.00;101680.22;1970879;72;33499;-72
2021/07/02 01:07:44;;;;;;;16.43;14.40;;;;;;;17.50;100.00;101679.61;1970669;73;33026;-75
2021/07/02 01:13:09;;;;;;;17.53;15.57;;;;;;;17.72;100.00;101679.72;1970604;73;33194;-75
2021/07/02 01:18:53;;;;;;;18.80;15.37;;;;;;;17.67;100.00;101679.86;1946517;74;31554;-72
2021/07/02 01:24:19;;;;;;;17.23;14.07;;;;;;;17.55;100.00;101682.30;1970546;73;30978;-75
2021/07/02 01:29:44;;;;;;;15.90;13.93;;;;;;;17.60;100.00;101685.04;1970816;73;31029;-72
2021/07/02 01:35:10;;;;;;;17.23;14.67;;;;;;;17.42;100.00;101677.50;1970789;73;31601;-74
2021/07/02 01:40:35;;;;;;;16.03;14.00;;;;;;;17.23;100.00;101681.81;1970648;73;31101;-75
2021/07/02 01:45:59;;;;;;;16.00;14.30;;;;;;;17.22;100.00;101675.36;1970773;72;33081;-75
2021/07/02 01:51:24;;;;;;;18.13;16.00;;;;;;;17.37;100.00;101669.20;1970458;73;33454;-74
2021/07/02 01:56:48;;;;;;;22.53;18.37;;;;;;;17.33;100.00;101666.76;1971086;72;33466;-72
2021/07/02 02:02:13;;;;;;;18.17;15.63;;;;;;;17.23;100.00;101665.80;1970666;72;32990;-72
2021/07/02 02:07:38;;;;;;;21.60;16.13;;;;;;;17.04;100.00;101666.44;1970932;72;31515;-72
2021/07/02 02:13:04;;;;;;;20.27;16.23;;;;;;;17.13;100.00;101656.16;1970838;72;32940;-75
2021/07/02 02:18:28;;;;;;;22.37;16.67;;;;;;;17.18;100.00;101655.23;1970843;72;33389;-73
2021/07/02 02:23:53;;;;;;;18.40;15.30;;;;;;;17.09;100.00;101644.45;1970827;73;31501;-72
2021/07/02 02:29:18;;;;;;;19.73;16.07;;;;;;;17.16;100.00;101646.27;1970620;73;31033;-72
2021/07/02 02:34:42;;;;;;;19.00;16.40;;;;;;;16.92;100.00;101652.06;1970956;73;31142;-75
2021/07/02 02:40:09;;;;;;;21.07;16.50;;;;;;;16.98;100.00;101655.62;1970824;72;31670;-75
2021/07/02 02:45:34;;;;;;;22.30;18.70;;;;;;;16.99;100.00;101650.25;1937227;74;31204;-72
2021/07/02 02:50:59;;;;;;;19.20;15.73;;;;;;;17.01;100.00;101643.77;1970910;72;31424;-72
2021/07/02 02:56:23;;;;;;;25.40;19.17;;;;;;;16.82;100.00;101636.23;1970838;72;31026;-75
2021/07/02 03:01:48;;;;;;;19.93;15.53;;;;;;;16.81;100.00;101626.75;1970871;72;31078;-72
2021/07/02 03:07:12;;;;;;;17.10;15.33;;;;;;;16.69;100.00;101634.80;1944482;74;33100;-74
2021/07/02 03:12:36;;;;;;;19.17;16.20;;;;;;;16.48;100.00;101640.45;1970806;73;33432;-72
2021/07/02 03:18:02;;;;;;;19.47;15.73;;;;;;;16.33;100.00;101633.14;1970760;73;32920;-72
2021/07/02 03:23:26;;;;;;;20.30;16.77;;;;;;;16.48;100.00;101632.04;1970790;72;31049;-74
2021/07/02 03:28:51;;;;;;;21.27;17.27;;;;;;;16.70;100.00;101629.45;1970863;73;32997;-74
2021/07/02 03:34:15;;;;;;;19.80;16.33;;;;;;;16.79;100.00;101625.64;1970741;73;33108;-74
2021/07/02 03:39:41;;;;;;;20.63;17.00;;;;;;;16.91;100.00;101615.88;1970814;73;31473;-75
2021/07/02 03:45:07;;;;;;;20.03;17.93;;;;;;;16.94;100.00;101617.52;1970887;73;31021;-73
2021/07/02 03:50:32;;;;;;;25.43;20.10;;;;;;;17.11;100.00;101617.75;1970437;72;33037;-71
2021/07/02 03:55:57;;;;;;;23.10;20.57;;;;;;;16.99;100.00;101629.20;1970520;73;33104;-74
2021/07/02 04:01:21;;;;;;;26.10;22.50;;;;;;;17.14;100.00;101619.94;1929171;72;39846;-74
2021/07/02 04:06:46;;;;;;;27.80;22.10;;;;;;;17.18;100.00;101614.52;1970730;73;31014;-71
2021/07/02 04:12:13;;;;;;;26.90;21.67;;;;;;;17.21;100.00;101616.70;1970980;73;30951;-74
2021/07/02 04:17:38;;;;;;;26.30;21.10;;;;;;;17.16;100.00;101619.60;1970810;72;31088;-74
2021/07/02 04:23:05;;;;;;;25.60;20.40;;;;;;;16.97;100.00;101622.52;1970971;72;31023;-74
2021/07/02 04:28:29;;;;;;;28.07;20.57;;;;;;;16.97;100.00;101625.88;1970612;72;30971;-72
2021/07/02 04:33:54;;;;;;;26.80;20.53;;;;;;;17.02;100.00;101622.42;1970700;73;31085;-71
2021/07/02 04:39:21;;;;;;;26.40;20.90;;;;;;;16.91;100.00;101640.58;1970619;73;31194;-72
2021/07/02 04:44:50;;;;;;;27.27;21.17;;;;;;;16.82;100.00;101633.44;1970684;73;33087;-71
2021/07/02 04:50:15;;;;;;;27.97;22.20;;;;;;;16.80;100.00;101632.92;1971008;72;33629;-72
2021/07/02 04:55:40;;;;;;;32.17;23.93;;;;;;;16.80;100.00;101637.70;1970481;72;32947;-72
2021/07/02 05:01:04;;;;;;;36.00;24.60;;;;;;;16.92;100.00;101636.63;1970706;73;33299;-72
2021/07/02 05:06:29;;;;;;;42.67;27.20;;;;;;;16.86;100.00;101644.87;1970901;72;31513;-75
2021/07/02 05:11:53;;;;;;;46.50;29.60;;;;;;;16.92;100.00;101649.83;1970742;73;31626;-75
2021/07/02 05:17:18;;;;;;;47.43;30.50;;;;;;;16.96;100.00;101665.75;1970598;72;32954;-73
2021/07/02 05:22:42;;;;;;;48.20;30.27;;;;;;;16.95;100.00;101660.42;1970893;72;33423;-75
2021/07/02 05:28:08;;;;;;;52.33;31.50;;;;;;;17.07;100.00;101659.39;1970846;72;33434;-72
2021/07/02 05:33:32;;;;;;;53.13;31.70;;;;;;;17.10;100.00;101663.81;1970712;73;31490;-72
2021/07/02 05:38:58;;;;;;;49.63;31.30;;;;;;;17.19;100.00;101673.19;1970733;72;30985;-76
2021/07/02 05:44:22;;;;;;;46.57;29.50;;;;;;;17.19;100.00;101666.17;1970818;72;33040;-75
2021/07/02 05:49:47;;;;;;;44.77;29.43;;;;;;;17.28;100.00;101666.28;1970691;72;33425;-75
2021/07/02 05:55:12;;;;;;;52.03;30.20;;;;;;;17.31;100.00;101683.91;1970676;72;30954;-73
2021/07/02 06:00:37;;;;;;;47.33;30.13;;;;;;;17.39;100.00;101683.75;1970839;72;33455;-71
2021/07/02 06:06:02;;;;;;;43.67;29.13;;;;;;;17.43;100.00;101680.58;1970525;73;32921;-71
2021/07/02 06:11:26;;;;;;;44.90;28.97;;;;;;;17.43;100.00;101692.65;1970743;73;32945;-74
2021/07/02 06:16:53;;;;;;;43.70;27.63;;;;;;;17.50;100.00;101691.66;1970713;72;31021;-76
2021/07/02 06:22:17;;;;;;;42.10;28.20;;;;;;;17.41;100.00;101685.69;1958628;71;33041;-74
2021/07/02 06:27:41;;;;;;;39.00;26.73;;;;;;;17.35;100.00;101698.99;1970599;72;31151;-76
2021/07/02 06:33:08;;;;;;;37.30;27.20;;;;;;;17.50;100.00;101699.28;1970627;72;31039;-75
2021/07/02 06:38:32;;;;;;;39.53;27.33;;;;;;;17.49;100.00;101693.39;1970797;72;31004;-74
2021/07/02 06:43:56;;;;;;;43.07;29.20;;;;;;;17.64;100.00;101695.34;1970860;72;30996;-74
2021/07/02 06:49:21;;;;;;;42.60;27.80;;;;;;;17.69;100.00;101698.05;1970839;72;31556;-76
2021/07/02 06:54:45;;;;;;;42.73;29.37;;;;;;;17.82;100.00;101686.55;1970488;72;30994;-71
2021/07/02 07:00:11;;;;;;;38.67;27.53;;;;;;;18.04;100.00;101700.69;1970613;73;31455;-73
2021/07/02 07:05:36;;;;;;;41.13;27.43;;;;;;;18.02;100.00;101701.55;1970494;72;30941;-74
2021/07/02 07:11:02;;;;;;;41.27;28.63;;;;;;;18.05;100.00;101704.33;1970635;72;33483;-75
2021/07/02 07:16:26;;;;;;;44.27;28.73;;;;;;;18.04;100.00;101715.31;1970508;73;31079;-73
2021/07/02 07:21:50;;;;;;;42.07;27.73;;;;;;;18.10;100.00;101712.63;1970509;73;31075;-73
2021/07/02 07:27:15;;;;;;;44.60;28.67;;;;;;;18.12;100.00;101703.31;1970499;73;31153;-71
2021/07/02 07:32:39;;;;;;;49.27;30.13;;;;;;;18.17;100.00;101720.08;1970993;72;31113;-74
2021/07/02 07:38:06;;;;;;;41.20;28.47;;;;;;;18.11;100.00;101723.57;1970855;72;31522;-73
2021/07/02 07:43:30;;;;;;;40.30;26.27;;;;;;;18.11;100.00;101724.98;1970637;73;31595;-73
2021/07/02 07:48:55;;;;;;;36.37;25.30;;;;;;;18.27;100.00;101717.02;1970615;72;31094;-73
2021/07/02 07:54:19;;;;;;;33.40;24.43;;;;;;;18.32;100.00;101719.73;1970963;72;31654;-73
2021/07/02 07:59:43;;;;;;;34.67;24.53;;;;;;;18.26;100.00;101719.60;1970620;73;30965;-76
2021/07/02 08:05:10;;;;;;;33.10;23.50;;;;;;;18.27;100.00;101722.65;1970795;72;30959;-76
2021/07/02 08:10:35;;;;;;;30.90;22.50;;;;;;;18.41;100.00;101720.64;1970726;72;31018;-75
2021/07/02 08:15:59;;;;;;;32.93;24.30;;;;;;;18.41;100.00;101713.61;1970736;72;30951;-75
2021/07/02 08:21:24;;;;;;;31.63;23.70;;;;;;;18.48;100.00;101714.59;1952991;72;31085;-76
2021/07/02 08:26:55;;;;;;;25.67;19.40;;;;;;;18.67;100.00;101704.59;1970500;72;31099;-75
2021/07/02 08:32:15;;;;;;;30.93;23.40;;;;;;;19.33;100.00;101707.37;1970751;72;32584;-74
2021/07/02 08:37:39;;;;;;;30.20;23.70;;;;;;;19.36;100.00;101693.20;1970871;72;31448;-72
2021/07/02 08:43:06;;;;;;;32.97;24.43;;;;;;;19.22;100.00;101702.31;1970636;73;31540;-72
2021/07/02 08:48:31;;;;;;;32.60;25.43;;;;;;;19.28;100.00;101691.17;1970624;73;33385;-75
2021/07/02 08:53:58;;;;;;;30.63;23.97;;;;;;;18.96;100.00;101691.72;1970480;72;31061;-73
2021/07/02 08:59:23;;;;;;;31.90;24.47;;;;;;;18.88;100.00;101690.25;1970992;72;31629;-71
2021/07/02 09:04:48;;;;;;;30.33;23.60;;;;;;;18.78;100.00;101689.97;1970923;72;31015;-72
2021/07/02 09:10:12;;;;;;;32.77;23.53;;;;;;;19.01;100.00;101694.41;1970832;72;31099;-71
2021/07/02 09:15:46;;;;;;;28.90;21.77;;;;;;;19.25;100.00;101684.21;1970695;73;31446;-72
2021/07/02 09:21:15;;;;;;;29.27;22.60;;;;;;;19.86;100.00;101681.06;1955706;72;31401;-71
2021/07/02 09:26:43;;;;;;;30.40;22.67;;;;;;;19.93;100.00;101679.45;1970795;72;30970;-72
2021/07/02 09:32:11;;;;;;;28.50;22.23;;;;;;;19.46;100.00;101674.07;1970525;73;31193;-73
2021/07/02 09:37:51;;;;;;;26.30;21.70;;;;;;;19.30;100.00;101671.94;1970697;72;31575;-70
2021/07/02 09:43:17;;;;;;;27.50;23.23;;;;;;;19.51;100.00;101673.89;1970906;72;31660;-74
2021/07/02 09:48:45;;;;;;;24.60;21.10;;;;;;;19.53;100.00;101667.95;1970547;72;30981;-74
2021/07/02 09:54:09;;;;;;;29.30;23.77;;;;;;;19.44;100.00;101665.09;1970558;72;31094;-73
2021/07/02 09:59:34;;;;;;;29.60;23.53;;;;;;;19.42;100.00;101673.02;1970645;73;31058;-74
2021/07/02 10:05:12;;;;;;;26.73;22.30;;;;;;;20.00;100.00;101671.32;1970750;72;31582;-74
2021/07/02 10:10:37;;;;;;;25.10;20.07;;;;;;;20.17;100.00;101671.09;1970894;73;31032;-74
2021/07/02 10:16:05;;;;;;;24.87;20.77;;;;;;;20.29;100.00;101681.14;1970465;73;31076;-74
2021/07/02 10:21:31;;;;;;;29.00;23.30;;;;;;;20.53;100.00;101680.70;1970638;71;31030;-73
2021/07/02 10:26:57;;;;;;;24.33;20.47;;;;;;;20.53;100.00;101682.11;1970716;73;31025;-74
2021/07/02 10:32:22;;;;;;;26.70;21.73;;;;;;;20.56;100.00;101682.27;1970611;73;31232;-74
2021/07/02 10:37:51;;;;;;;26.33;22.40;;;;;;;20.73;100.00;101680.85;1970891;72;31024;-74
2021/07/02 10:43:32;;;;;;;24.63;21.17;;;;;;;20.76;100.00;101682.16;1970665;72;31071;-73
2021/07/02 10:49:09;;;;;;;26.33;21.83;;;;;;;20.67;100.00;101696.87;1970796;72;31661;-75
2021/07/02 10:54:47;;;;;;;26.80;22.00;;;;;;;20.56;100.00;101693.56;1970588;72;31030;-73
2021/07/02 11:00:15;;;;;;;24.33;20.87;;;;;;;20.73;100.00;101689.91;1970559;73;31017;-73
2021/07/02 11:05:39;;;;;;;25.33;20.30;;;;;;;20.79;100.00;101693.62;1970913;72;31751;-73
2021/07/02 11:11:03;;;;;;;25.47;21.23;;;;;;;20.43;100.00;101687.50;1970809;72;31527;-75
2021/07/02 11:13:57;;;;;;;27.17;20.10;;;;;;;20.51;100.00;101694.30;1946225;74;24286;-73
2021/07/02 11:19:28;;;;;;;26.07;20.40;;;;;;;20.83;100.00;101691.81;1970929;72;31428;-75
2021/07/02 11:25:24;;;;;;;24.10;20.70;;;;;;;21.06;100.00;101687.34;1970819;72;31364;-73
2021/07/02 11:31:02;;;;;;;24.37;20.67;;;;;;;20.78;100.00;101690.57;1970876;72;31164;-74
2021/07/02 11:36:27;;;;;;;22.43;18.53;;;;;;;21.08;100.00;101685.86;1971059;73;31096;-74
2021/07/02 11:41:52;;;;;;;20.03;16.50;;;;;;;21.40;100.00;101670.32;1970752;73;31672;-74
2021/07/02 11:47:16;;;;;;;22.77;17.97;;;;;;;21.53;100.00;101677.75;1970705;72;31048;-73
2021/07/02 11:52:47;;;;;;;22.10;17.17;;;;;;;21.81;100.00;101662.57;1970651;72;30998;-74
2021/07/02 11:58:18;;;;;;;19.07;16.87;;;;;;;21.77;100.00;101651.70;1970637;72;30961;-74
2021/07/02 12:03:50;;;;;;;22.07;16.70;;;;;;;21.76;100.00;101656.52;1970787;72;31084;-75
2021/07/02 12:09:19;;;;;;;19.25;17.15;;;;;;;21.73;100.00;101643.66;1970462;73;30955;-73
2021/07/02 12:14:47;;;;;;;19.90;16.57;;;;;;;21.83;100.00;101641.83;1970735;72;31116;-75
2021/07/02 12:20:14;;;;;;;19.85;14.80;;;;;;;21.85;100.00;101629.59;1970596;72;30979;-74
2021/07/02 12:25:39;;;;;;;19.73;14.70;;;;;;;21.70;100.00;101624.52;1970754;72;31561;-75
2021/07/02 12:31:04;;;;;;;17.17;15.33;;;;;;;21.84;100.00;101623.69;1970407;72;31207;-74
2021/07/02 12:36:31;;;;;;;19.73;16.43;;;;;;;21.73;100.00;101621.86;1970294;72;31125;-73
2021/07/02 12:41:57;;;;;;;19.62;16.60;;;;;;;22.00;100.00;101612.63;1970578;72;31033;-74
2021/07/02 12:47:25;;;;;;;19.50;15.90;;;;;;;22.02;100.00;101614.54;1970520;72;31778;-74
2021/07/02 12:58:34;;;;;;;12.37;10.58;;;;;;;22.29;100.00;101597.02;1970916;72;30973;-74
2021/07/02 13:04:03;;;;;;;15.80;13.05;;;;;;;22.21;100.00;101593.64;1970767;72;31114;-74
2021/07/02 13:09:28;;;;;;;14.87;12.10;;;;;;;22.18;100.00;101604.25;1970717;72;31059;-74
2021/07/02 13:15:13;;;;;;;13.62;12.10;;;;;;;22.21;100.00;101595.89;1970701;72;31624;-74
2021/07/02 13:20:47;;;;;;;10.68;9.48;;;;;;;22.27;100.00;101592.86;1962156;72;31081;-73
2021/07/02 13:26:15;;;;;;;13.08;11.68;;;;;;;22.33;100.00;101582.99;1970849;72;30938;-74
2021/07/02 13:31:41;;;;;;;10.75;9.65;;;;;;;22.35;100.00;101582.87;1970968;73;31572;-74
2021/07/02 13:37:08;;;;;;;10.72;9.40;;;;;;;22.22;100.00;101583.98;1971091;72;31005;-74
2021/07/02 13:42:34;;;;;;;8.33;7.23;;;;;;;22.19;100.00;101584.69;1971128;72;30959;-75
2021/07/02 13:48:12;;;;;;;10.60;9.60;;;;;;;22.41;100.00;101582.08;1970918;73;30984;-73
2021/07/02 13:53:38;;;;;;;9.00;8.10;;;;;;;22.52;100.00;101581.29;1971204;72;31232;-74
2021/07/02 13:59:02;;;;;;;9.53;8.10;;;;;;;22.57;100.00;101566.09;1970717;72;31507;-74
2021/07/02 14:04:46;;;;;;;8.73;7.83;;;;;;;22.57;100.00;101563.25;1946447;74;31104;-74
2021/07/02 14:10:14;;;;;;;8.50;7.70;;;;;;;22.59;100.00;101565.16;1970520;73;31342;-75
2021/07/02 14:15:43;;;;;;;8.35;7.55;;;;;;;22.61;100.00;101563.62;1970718;72;31040;-73
2021/07/02 14:21:08;;;;;;;10.55;7.40;;;;;;;22.61;100.00;101566.45;1964195;71;30952;-74
2021/07/02 14:26:34;;;;;;;8.48;7.28;;;;;;;23.25;100.00;101572.97;1970817;72;31008;-74
2021/07/02 14:32:00;;;;;;;8.60;7.65;;;;;;;23.40;100.00;101568.63;1970608;72;30974;-73
2021/07/02 14:37:24;;;;;;;7.90;7.12;;;;;;;23.23;100.00;101560.34;1970689;73;31072;-73
2021/07/02 14:42:48;;;;;;;7.78;6.87;;;;;;;23.32;100.00;101566.11;1970727;73;31109;-74
2021/07/02 14:48:13;;;;;;;7.83;7.03;;;;;;;23.36;100.00;101559.97;1970726;72;30936;-74
2021/07/02 14:53:36;;;;;;;9.30;7.83;;;;;;;23.23;100.00;101557.52;1970617;73;31536;-72
2021/07/02 14:59:01;;;;;;;9.75;8.88;;;;;;;23.09;100.00;101555.84;1970734;72;30979;-72
2021/07/02 15:04:25;;;;;;;9.40;6.70;;;;;;;22.96;100.00;101557.59;1970481;72;31036;-72
2021/07/02 15:09:50;;;;;;;7.03;6.37;;;;;;;22.51;100.00;101544.23;1970549;73;30925;-75
2021/07/02 15:15:15;;;;;;;6.58;5.97;;;;;;;22.87;100.00;101544.12;1970767;73;30928;-75
2021/07/02 15:20:39;;;;;;;6.25;5.17;;;;;;;23.10;100.00;101539.06;1970548;73;31106;-72
2021/07/02 15:26:04;;;;;;;5.55;5.05;;;;;;;23.19;100.00;101546.65;1970560;72;30950;-74
2021/07/02 15:32:03;;;;;;;5.97;5.37;;;;;;;23.27;100.00;101545.11;1970623;73;31125;-74
2021/07/02 15:37:47;;;;;;;7.83;6.15;;;;;;;23.06;100.00;101555.11;1946298;74;31144;-73
2021/07/02 15:43:11;;;;;;;5.00;4.50;;;;;;;22.84;100.00;101541.42;1970688;72;31074;-72
2021/07/02 15:48:35;;;;;;;7.95;5.58;;;;;;;22.68;100.00;101551.13;1970753;72;31526;-72
2021/07/02 15:54:01;;;;;;;8.45;5.65;;;;;;;22.68;100.00;101541.80;1970699;73;31494;-74
2021/07/02 15:59:25;;;;;;;9.78;5.80;;;;;;;22.58;100.00;101540.27;1970706;73;31549;-74
2021/07/02 16:04:56;;;;;;;7.17;5.75;;;;;;;22.72;100.00;101533.48;1970527;72;30940;-74
2021/07/02 16:10:27;;;;;;;8.73;5.80;;;;;;;22.60;100.00;101528.56;1970662;73;30943;-74
2021/07/02 16:15:57;;;;;;;6.15;5.60;;;;;;;22.59;100.00;101515.61;1970807;72;30977;-74
2021/07/02 16:21:22;;;;;;;5.83;5.33;;;;;;;22.66;100.00;101509.59;1970232;73;31014;-76
2021/07/02 16:26:46;;;;;;;5.83;5.05;;;;;;;22.76;100.00;101496.19;1970289;72;31039;-74
2021/07/02 16:32:10;;;;;;;6.45;5.30;;;;;;;22.70;100.00;101497.00;1970710;72;31498;-72
2021/07/02 16:37:35;;;;;;;6.75;6.08;;;;;;;22.86;100.00;101483.80;1970466;72;30939;-74
2021/07/02 16:43:01;;;;;;;5.72;5.22;;;;;;;22.94;100.00;101473.52;1970430;73;31047;-75
2021/07/02 16:48:26;;;;;;;6.90;6.20;;;;;;;22.73;100.00;101486.96;1970523;73;31466;-71
2021/07/02 16:53:50;;;;;;;10.58;6.35;;;;;;;22.86;100.00;101477.30;1970544;72;30972;-72
2021/07/02 16:59:14;;;;;;;7.37;6.67;;;;;;;23.20;100.00;101479.66;1970219;73;31052;-72
2021/07/02 17:04:39;;;;;;;8.95;8.03;;;;;;;23.00;100.00;101480.62;1946699;72;31558;-77
2021/07/02 17:10:11;;;;;;;8.83;7.60;;;;;;;22.99;100.00;101461.37;1970271;72;30994;-75
2021/07/02 17:15:36;;;;;;;8.50;7.50;;;;;;;23.17;100.00;101461.95;1970346;73;31020;-74
2021/07/02 17:21:00;;;;;;;10.55;8.15;;;;;;;23.16;100.00;101461.71;1970321;73;30957;-75
2021/07/02 17:26:27;;;;;;;7.83;6.95;;;;;;;23.20;100.00;101461.82;1970657;73;31424;-73
2021/07/02 17:31:52;;;;;;;7.95;7.12;;;;;;;23.09;100.00;101455.23;1970196;73;30994;-78
2021/07/02 17:37:17;;;;;;;6.92;6.22;;;;;;;22.81;100.00;101453.45;1970777;72;31515;-75
2021/07/02 17:42:44;;;;;;;7.70;6.92;;;;;;;22.66;100.00;101447.29;1970193;73;31008;-73
2021/07/02 17:48:09;;;;;;;6.92;6.22;;;;;;;22.61;100.00;101447.52;1970338;73;31101;-77
2021/07/02 17:53:33;;;;;;;7.70;6.90;;;;;;;22.92;100.00;101444.73;1970466;73;31543;-77
2021/07/02 17:58:58;;;;;;;7.37;6.67;;;;;;;22.99;100.00;101451.45;1970397;73;31027;-73
2021/07/02 18:04:23;;;;;;;8.00;7.30;;;;;;;23.11;100.00;101457.11;1970648;72;31449;-76
2021/07/02 18:09:48;;;;;;;9.68;8.65;;;;;;;23.00;100.00;101456.53;1970534;72;30950;-73
2021/07/02 18:15:14;;;;;;;9.35;7.45;;;;;;;22.96;100.00;101470.59;1970429;73;31002;-74
2021/07/02 18:20:41;;;;;;;10.32;9.33;;;;;;;22.83;100.00;101476.02;1966794;71;30978;-74
2021/07/02 18:26:05;;;;;;;10.93;9.53;;;;;;;22.99;100.00;101467.63;1970670;72;31005;-75
2021/07/02 18:31:30;;;;;;;12.43;11.15;;;;;;;22.98;100.00;101462.55;1970682;73;30966;-75
2021/07/02 18:36:54;;;;;;;11.90;10.70;;;;;;;22.95;100.00;101454.77;1970916;72;31412;-71
2021/07/02 18:42:18;;;;;;;14.07;10.93;;;;;;;22.99;100.00;101459.95;1970803;72;30962;-74
2021/07/02 18:47:48;;;;;;;16.70;14.85;;;;;;;22.82;100.00;101455.94;1970420;72;31556;-78
2021/07/02 18:53:15;;;;;;;15.78;14.28;;;;;;;22.87;100.00;101458.54;1970805;72;31647;-78
2021/07/02 18:58:33;;;;;;;15.28;13.72;;;;;;;22.84;100.00;101461.27;1934670;73;31319;-77
2021/07/02 19:03:58;;;;;;;15.45;13.68;;;;;;;22.80;100.00;101451.81;1970681;72;31550;-79
2021/07/02 19:09:22;;;;;;;16.10;14.40;;;;;;;22.57;100.00;101455.06;1970993;73;31014;-75
2021/07/02 19:14:47;;;;;;;15.53;13.93;;;;;;;22.64;100.00;101451.05;1970660;73;31077;-80
2021/07/02 19:20:16;;;;;;;14.97;13.37;;;;;;;22.37;100.00;101451.73;1967447;73;30980;-81
2021/07/02 19:25:39;;;;;;;15.20;13.60;;;;;;;22.19;100.00;101442.59;1970681;72;31076;-80
2021/07/02 19:31:04;;;;;;;15.95;14.28;;;;;;;22.17;100.00;101449.19;1970805;72;31113;-79
2021/07/02 19:36:29;;;;;;;19.05;16.95;;;;;;;22.14;100.00;101444.81;1970993;72;30975;-80
2021/07/02 19:41:54;;;;;;;15.20;13.70;;;;;;;22.02;100.00;101437.13;1970954;73;31586;-82
2021/07/02 19:47:18;;;;;;;15.32;13.70;;;;;;;21.97;100.00;101447.81;1970874;72;31054;-82
2021/07/02 19:52:42;;;;;;;14.93;13.38;;;;;;;21.88;100.00;101439.38;1970856;73;30988;-78
2021/07/02 19:58:09;;;;;;;13.98;12.68;;;;;;;21.67;100.00;101449.89;1970393;73;31007;-77
2021/07/02 20:03:33;;;;;;;12.80;11.60;;;;;;;21.59;100.00;101445.14;1970994;72;31604;-75
2021/07/02 20:08:58;;;;;;;11.97;10.78;;;;;;;21.49;100.00;101439.89;1970631;72;31004;-75
2021/07/02 20:14:22;;;;;;;20.03;17.23;;;;;;;21.44;100.00;101440.92;1970516;72;31061;-73
2021/07/02 20:19:48;;;;;;;11.57;10.48;;;;;;;21.38;100.00;101438.07;1970661;72;31023;-75
2021/07/02 20:25:13;;;;;;;10.77;9.77;;;;;;;21.03;100.00;101397.89;1970727;72;30980;-75
2021/07/02 20:30:38;;;;;;;11.78;10.58;;;;;;;;;;1970912;72;31621;-78
2021/07/02 20:33:10;;;;;;;11.17;10.07;;;;;;;21.24;100.00;101445.98;1945959;74;24187;-78
2021/07/02 20:38:35;;;;;;;12.60;11.40;;;;;;;21.10;100.00;101441.13;1970774;72;31724;-78
2021/07/02 20:44:00;;;;;;;12.15;11.05;;;;;;;20.86;100.00;101445.44;1970898;72;30952;-77
2021/07/02 20:49:24;;;;;;;12.13;10.90;;;;;;;20.89;100.00;101448.14;1970560;73;31027;-76
2021/07/02 20:54:48;;;;;;;11.07;9.67;;;;;;;20.85;100.00;101452.24;1970736;73;31024;-75
2021/07/02 21:00:15;;;;;;;10.00;8.70;;;;;;;20.67;100.00;101456.89;1970925;73;30985;-78
2021/07/02 21:05:41;;;;;;;10.10;8.87;;;;;;;20.70;100.00;101441.53;1970802;72;30929;-78
2021/07/02 21:11:06;;;;;;;9.93;8.93;;;;;;;20.59;100.00;101437.99;1970984;72;31117;-73
2021/07/02 21:16:30;;;;;;;9.67;8.70;;;;;;;20.55;100.00;101441.25;1970914;73;31451;-74
2021/07/02 21:21:55;;;;;;;10.13;9.00;;;;;;;20.55;100.00;101436.44;1947200;72;31555;-79
2021/07/02 21:27:19;;;;;;;9.50;8.60;;;;;;;20.54;100.00;101431.15;1970655;72;31528;-73
2021/07/02 21:32:45;;;;;;;10.87;9.67;;;;;;;20.44;100.00;101436.00;1970787;73;31544;-75
2021/07/02 21:38:10;;;;;;;10.80;9.77;;;;;;;20.35;100.00;101436.61;1970737;72;31531;-76
2021/07/02 21:43:35;;;;;;;13.67;11.50;;;;;;;20.19;100.00;101444.50;1970701;72;30996;-76
2021/07/02 21:49:05;;;;;;;11.90;10.70;;;;;;;20.26;100.00;101449.88;1970530;72;30956;-76
2021/07/02 21:54:31;;;;;;;14.10;12.40;;;;;;;20.23;100.00;101456.77;1970395;72;31067;-74
2021/07/02 21:59:55;;;;;;;15.43;11.37;;;;;;;20.21;100.00;101453.44;1970505;72;31009;-76
2021/07/02 22:08:15;;;;;;;12.13;10.93;;;;;;;20.06;100.00;101442.12;1975806;72;30841;-74
2021/07/02 22:10:45;;;;;;;11.40;10.20;;;;;;;19.99;100.00;101448.27;1950470;73;24769;-74
2021/07/02 22:13:17;;;;;;;12.63;11.30;;;;;;;20.02;100.00;101442.55;1950073;73;24234;-74
2021/07/02 22:15:48;;;;;;;11.90;10.43;;;;;;;19.96;100.00;101437.66;1950636;73;26775;-74
2021/07/02 22:18:18;;;;;;;12.03;10.87;;;;;;;19.92;100.00;101446.55;1950693;73;24261;-77
2021/07/02 22:23:48;;;;;;;12.27;10.97;;;;;;;19.94;100.00;101428.69;1973740;72;31505;-77
2021/07/02 22:29:12;;;;;;;11.10;10.10;;;;;;;19.69;100.00;101440.83;1970599;72;31141;-78
2021/07/02 22:34:43;;;;;;;14.47;12.67;;;;;;;19.59;100.00;101432.73;1970774;72;31811;-74
2021/07/02 22:40:11;;;;;;;14.30;12.30;;;;;;;19.72;100.00;101434.55;1970769;72;31105;-75
2021/07/02 22:45:36;;;;;;;14.57;11.90;;;;;;;19.87;100.00;101434.59;1970661;72;31048;-78
2021/07/02 22:51:01;;;;;;;14.50;12.73;;;;;;;19.94;100.00;101427.86;1970746;72;31139;-74
2021/07/02 22:56:27;;;;;;;12.93;11.53;;;;;;;19.86;100.00;101430.11;1970849;72;31430;-75
2021/07/02 23:01:53;;;;;;;13.10;11.13;;;;;;;19.83;100.00;101427.97;1970615;72;31178;-75
2021/07/02 23:07:18;;;;;;;11.90;10.30;;;;;;;19.77;100.00;101426.47;1970763;72;31415;-77
2021/07/02 23:13:02;;;;;;;10.60;9.60;;;;;;;19.65;100.00;101424.33;1919765;73;31016;-75
2021/07/02 23:18:28;;;;;;;10.93;9.83;;;;;;;19.60;100.00;101424.49;1970647;72;30981;-75
2021/07/02 23:23:53;;;;;;;10.97;9.77;;;;;;;19.67;100.00;101409.92;1970655;73;31044;-75
2021/07/02 23:29:17;;;;;;;12.07;10.70;;;;;;;19.64;100.00;101402.14;1970883;73;33489;-77
2021/07/02 23:34:41;;;;;;;12.60;10.23;;;;;;;19.57;100.00;101406.84;1970482;72;31110;-76
2021/07/02 23:40:27;;;;;;;11.30;9.87;;;;;;;19.41;100.00;101409.31;1946507;74;31595;-74
2021/07/02 23:45:54;;;;;;;13.00;10.17;;;;;;;19.48;100.00;101401.80;1970778;72;30932;-74
2021/07/02 23:51:19;;;;;;;12.47;10.70;;;;;;;19.39;100.00;101400.92;1970610;73;33086;-77
2021/07/02 23:56:48;;;;;;;12.07;10.67;;;;;;;19.33;100.00;101398.05;1970711;72;33345;-75
